Time;durP1;ratioP1;P1;durP2;ratioP2;P2;SDS_P1;SDS_P2;PMS_P1;PMS_P2;Temp;Humidity;BMP_temperature;BMP_pressure;BME280_temperature;BME280_humidity;BME280_pressure;Samples;Min_cycle;Max_cycle;Signal;HPM_P1;HPM_P2
2024/01/09 00:00:45;;;;;;;13.83;4.90;;;;;;;;;;4894750;29;20229;-52
2024/01/09 00:03:11;;;;;;;12.00;4.70;;;;;;;;;;4909180;29;20420;-55
2024/01/09 00:05:37;;;;;;;12.30;4.97;;;;;;;;;;4904760;29;20254;-51
2024/01/09 00:08:03;;;;;;;12.50;5.03;;;;;;;;;;4907844;29;20196;-54
2024/01/09 00:10:29;;;;;;;17.13;5.17;;;;;;;;;;4902222;29;20991;-53
2024/01/09 00:12:56;;;;;;;12.77;4.73;;;;;;;;;;4902467;29;20508;-50
2024/01/09 00:15:21;;;;;;;13.30;4.70;;;;;;;;;;4909505;29;20813;-53
2024/01/09 00:17:47;;;;;;;14.03;5.00;;;;;;;;;;4910031;29;20425;-53
2024/01/09 00:20:14;;;;;;;13.50;5.30;;;;;;;;;;4902484;29;20355;-55
2024/01/09 00:22:41;;;;;;;13.37;5.30;;;;;;;;;;4894371;29;20671;-53
2024/01/09 00:25:08;;;;;;;12.67;4.63;;;;;;;;;;4893836;29;20455;-53
2024/01/09 00:27:34;;;;;;;14.43;5.53;;;;;;;;;;4903969;29;20440;-55
2024/01/09 00:30:00;;;;;;;11.70;5.30;;;;;;;;;;4908156;29;20516;-52
2024/01/09 00:32:27;;;;;;;11.60;4.93;;;;;;;;;;4902222;29;20526;-51
2024/01/09 00:34:53;;;;;;;13.47;5.27;;;;;;;;;;4895390;29;20225;-53
2024/01/09 00:37:18;;;;;;;16.00;5.07;;;;;;;;;;4906040;29;20928;-55
2024/01/09 00:39:44;;;;;;;14.43;4.90;;;;;;;;;;4913727;29;20184;-54
2024/01/09 00:42:10;;;;;;;14.07;5.20;;;;;;;;;;4912756;29;20195;-52
2024/01/09 00:44:36;;;;;;;17.20;5.70;;;;;;;;;;4914308;29;20283;-53
2024/01/09 00:47:02;;;;;;;16.00;4.77;;;;;;;;;;4903368;29;20683;-54
2024/01/09 00:49:28;;;;;;;11.10;4.63;;;;;;;;;;4901005;29;20196;-51
2024/01/09 00:51:54;;;;;;;11.57;4.33;;;;;;;;;;4904350;29;20925;-52
2024/01/09 00:54:20;;;;;;;12.07;4.73;;;;;;;;;;4905348;29;20242;-52
2024/01/09 00:56:46;;;;;;;11.37;4.57;;;;;;;;;;4905070;29;20962;-54
2024/01/09 00:59:12;;;;;;;16.90;5.10;;;;;;;;;;4904647;29;20412;-54
2024/01/09 01:01:38;;;;;;;15.90;5.43;;;;;;;;;;4900807;29;20259;-54
2024/01/09 01:04:04;;;;;;;16.80;5.27;;;;;;;;;;4902888;29;20545;-51
2024/01/09 01:06:39;;;;;;;13.67;5.57;;;;;;;;;;4904597;29;20520;-52
2024/01/09 01:09:05;;;;;;;13.17;5.07;;;;;;;;;;4897862;29;20184;-51
2024/01/09 01:11:32;;;;;;;9.53;4.07;;;;;;;;;;4898731;29;21012;-52
2024/01/09 01:13:58;;;;;;;11.33;4.30;;;;;;;;;;4908592;29;20216;-55
2024/01/09 01:16:24;;;;;;;14.10;5.20;;;;;;;;;;4907121;29;20528;-51
2024/01/09 01:18:50;;;;;;;13.27;5.10;;;;;;;;;;4897436;29;20815;-52
2024/01/09 01:21:16;;;;;;;15.20;5.30;;;;;;;;;;4912348;29;20196;-51
2024/01/09 01:23:42;;;;;;;11.93;4.77;;;;;;;;;;4908275;29;20184;-54
2024/01/09 01:26:08;;;;;;;11.33;4.53;;;;;;;;;;4909113;29;20302;-51
2024/01/09 01:28:34;;;;;;;14.03;4.77;;;;;;;;;;4905052;29;20880;-56
2024/01/09 01:31:00;;;;;;;12.87;4.37;;;;;;;;;;4897464;29;20928;-52
2024/01/09 01:33:26;;;;;;;12.80;4.87;;;;;;;;;;4905415;29;20437;-53
2024/01/09 01:35:52;;;;;;;13.60;5.13;;;;;;;;;;4907552;29;20577;-52
2024/01/09 01:38:18;;;;;;;12.37;4.80;;;;;;;;;;4916034;29;20251;-51
2024/01/09 01:40:44;;;;;;;12.87;4.90;;;;;;;;;;4897041;29;20425;-51
2024/01/09 01:43:10;;;;;;;15.80;4.83;;;;;;;;;;4911191;29;20199;-51
2024/01/09 01:45:36;;;;;;;13.03;4.83;;;;;;;;;;4904660;29;20688;-54
2024/01/09 01:48:03;;;;;;;14.50;5.20;;;;;;;;;;4904260;29;20216;-52
2024/01/09 01:50:29;;;;;;;12.00;4.67;;;;;;;;;;4912355;29;20609;-51
2024/01/09 01:52:55;;;;;;;12.33;4.60;;;;;;;;;;4909151;29;20748;-51
2024/01/09 01:55:25;;;;;;;14.20;4.67;;;;;;;;;;4906809;29;20563;-54
2024/01/09 01:57:53;;;;;;;13.80;5.10;;;;;;;;;;4896860;29;20599;-52
2024/01/09 02:00:20;;;;;;;14.77;4.73;;;;;;;;;;4896661;29;20459;-52
2024/01/09 02:02:50;;;;;;;14.43;5.47;;;;;;;;;;4907548;29;20420;-56
2024/01/09 02:05:17;;;;;;;11.70;4.63;;;;;;;;;;4906401;29;20447;-52
2024/01/09 02:07:46;;;;;;;10.30;4.23;;;;;;;;;;4907137;29;20435;-52
2024/01/09 02:10:13;;;;;;;12.73;4.97;;;;;;;;;;4908593;29;20491;-52
2024/01/09 02:12:39;;;;;;;10.93;4.23;;;;;;;;;;4906326;29;20923;-51
2024/01/09 02:15:05;;;;;;;11.47;4.30;;;;;;;;;;4913049;29;20511;-54
2024/01/09 02:17:31;;;;;;;11.13;4.43;;;;;;;;;;4905754;29;20421;-52
2024/01/09 02:20:00;;;;;;;14.57;4.87;;;;;;;;;;4909240;29;20412;-53
2024/01/09 02:22:26;;;;;;;15.90;5.33;;;;;;;;;;4906442;29;20568;-52
2024/01/09 02:24:52;;;;;;;12.20;4.57;;;;;;;;;;4899533;29;21098;-54
2024/01/09 02:27:27;;;;;;;11.37;4.70;;;;;;;;;;4915026;29;20203;-55
2024/01/09 02:29:53;;;;;;;13.10;4.97;;;;;;;;;;4900391;29;20557;-56
2024/01/09 02:32:20;;;;;;;11.77;4.27;;;;;;;;;;4914862;29;20432;-56
2024/01/09 02:34:47;;;;;;;11.07;4.00;;;;;;;;;;4906529;29;20475;-56
2024/01/09 02:37:13;;;;;;;13.37;3.87;;;;;;;;;;4906888;29;20920;-54
2024/01/09 02:39:39;;;;;;;12.67;4.60;;;;;;;;;;4906683;29;20424;-55
2024/01/09 02:42:05;;;;;;;10.97;4.07;;;;;;;;;;4907052;29;20605;-55
2024/01/09 02:44:31;;;;;;;12.60;4.43;;;;;;;;;;4905947;29;20196;-54
2024/01/09 02:46:57;;;;;;;14.33;4.80;;;;;;;;;;4914564;29;20208;-55
2024/01/09 02:49:23;;;;;;;8.20;3.53;;;;;;;;;;4906782;29;20212;-52
2024/01/09 02:51:49;;;;;;;9.67;3.93;;;;;;;;;;4909556;29;20272;-54
2024/01/09 02:54:15;;;;;;;10.50;3.93;;;;;;;;;;4900979;29;20619;-55
2024/01/09 02:56:41;;;;;;;13.13;4.43;;;;;;;;;;4898205;29;20209;-52
2024/01/09 02:59:07;;;;;;;10.83;4.47;;;;;;;;;;4900461;29;20180;-53
2024/01/09 03:01:33;;;;;;;10.63;4.17;;;;;;;;;;4904522;29;20984;-52
2024/01/09 03:03:59;;;;;;;13.30;5.07;;;;;;;;;;4909529;29;20512;-52
2024/01/09 03:06:25;;;;;;;11.83;4.37;;;;;;;;;;4894756;29;20231;-53
2024/01/09 03:08:51;;;;;;;10.63;4.07;;;;;;;;;;4910256;29;20929;-51
2024/01/09 03:11:17;;;;;;;9.83;3.63;;;;;;;;;;4895387;29;20220;-53
2024/01/09 03:13:43;;;;;;;14.07;4.77;;;;;;;;;;4895005;29;20212;-54
2024/01/09 03:16:12;;;;;;;12.20;4.20;;;;;;;;;;4900554;29;20235;-55
2024/01/09 03:18:39;;;;;;;11.70;4.03;;;;;;;;;;4904118;29;20560;-56
2024/01/09 03:21:05;;;;;;;18.53;4.07;;;;;;;;;;4908637;29;20438;-49
2024/01/09 03:23:32;;;;;;;9.70;3.77;;;;;;;;;;4912558;29;20787;-53
2024/01/09 03:25:58;;;;;;;12.73;4.33;;;;;;;;;;4894383;29;20527;-51
2024/01/09 03:28:25;;;;;;;12.33;4.20;;;;;;;;;;4894921;29;20421;-52
2024/01/09 03:30:51;;;;;;;11.57;3.73;;;;;;;;;;4894864;29;20424;-55
2024/01/09 03:33:17;;;;;;;11.87;3.83;;;;;;;;;;4909887;29;20427;-56
2024/01/09 03:35:43;;;;;;;10.97;3.67;;;;;;;;;;4912952;29;20219;-51
2024/01/09 03:38:08;;;;;;;11.30;3.90;;;;;;;;;;4914237;29;20184;-52
2024/01/09 03:40:36;;;;;;;12.47;3.73;;;;;;;;;;4905877;29;20219;-52
2024/01/09 03:43:02;;;;;;;7.67;3.53;;;;;;;;;;4913860;29;20176;-51
2024/01/09 03:45:28;;;;;;;11.57;3.80;;;;;;;;;;4896527;29;20845;-51
2024/01/09 03:47:55;;;;;;;13.13;4.13;;;;;;;;;;4902537;29;20799;-51
2024/01/09 03:50:21;;;;;;;11.60;4.17;;;;;;;;;;4902696;29;20424;-52
2024/01/09 03:52:47;;;;;;;9.50;3.60;;;;;;;;;;4894965;29;20480;-54
2024/01/09 03:55:14;;;;;;;8.50;3.57;;;;;;;;;;4908547;29;20215;-55
2024/01/09 03:57:40;;;;;;;10.43;3.90;;;;;;;;;;4913383;29;20424;-51
2024/01/09 04:00:07;;;;;;;9.23;3.87;;;;;;;;;;4906063;29;20415;-54
2024/01/09 04:02:33;;;;;;;10.13;3.90;;;;;;;;;;4896546;29;20436;-54
2024/01/09 04:04:59;;;;;;;9.23;3.57;;;;;;;;;;4906570;29;20498;-52
2024/01/09 04:07:24;;;;;;;10.63;3.80;;;;;;;;;;4905336;29;20223;-52
2024/01/09 04:09:50;;;;;;;9.10;3.67;;;;;;;;;;4902036;29;20435;-53
2024/01/09 04:12:16;;;;;;;10.87;3.70;;;;;;;;;;4909538;29;20246;-56
2024/01/09 04:14:42;;;;;;;10.87;3.83;;;;;;;;;;4897305;29;20215;-51
2024/01/09 04:17:08;;;;;;;8.53;3.60;;;;;;;;;;4907486;29;20215;-51
2024/01/09 04:19:37;;;;;;;9.97;3.47;;;;;;;;;;4894279;29;20193;-54
2024/01/09 04:22:03;;;;;;;10.63;3.40;;;;;;;;;;4900117;29;20191;-54
2024/01/09 04:24:29;;;;;;;9.90;3.60;;;;;;;;;;4905103;29;20424;-55
2024/01/09 04:26:55;;;;;;;8.03;3.23;;;;;;;;;;4905594;29;20826;-53
2024/01/09 04:29:21;;;;;;;8.83;3.73;;;;;;;;;;4905905;29;20222;-51
2024/01/09 04:31:47;;;;;;;9.67;2.90;;;;;;;;;;4910461;29;20597;-51
2024/01/09 04:34:13;;;;;;;9.23;3.73;;;;;;;;;;4894300;29;20887;-52
2024/01/09 04:36:39;;;;;;;9.23;3.67;;;;;;;;;;4903282;29;20435;-55
2024/01/09 04:39:05;;;;;;;9.60;3.27;;;;;;;;;;4905903;29;20638;-51
2024/01/09 04:41:31;;;;;;;9.57;3.40;;;;;;;;;;4896441;29;20251;-51
2024/01/09 04:43:57;;;;;;;9.27;3.33;;;;;;;;;;4898738;29;20188;-55
2024/01/09 04:46:23;;;;;;;8.43;3.27;;;;;;;;;;4896643;29;20246;-54
2024/01/09 04:48:49;;;;;;;8.30;3.00;;;;;;;;;;4901788;29;20188;-51
2024/01/09 04:51:15;;;;;;;9.17;3.43;;;;;;;;;;4894132;29;20197;-53
2024/01/09 04:53:41;;;;;;;8.97;3.37;;;;;;;;;;4901601;29;20219;-52
2024/01/09 04:56:08;;;;;;;12.27;4.17;;;;;;;;;;4901168;29;20204;-54
2024/01/09 04:58:34;;;;;;;12.00;4.03;;;;;;;;;;4894087;29;20248;-51
2024/01/09 05:01:00;;;;;;;10.47;4.33;;;;;;;;;;4898855;29;20427;-51
2024/01/09 05:03:26;;;;;;;9.97;3.27;;;;;;;;;;4912850;29;20195;-53
2024/01/09 05:05:52;;;;;;;8.83;3.50;;;;;;;;;;4912190;29;20470;-53
2024/01/09 05:08:18;;;;;;;9.07;3.67;;;;;;;;;;4905680;29;20741;-52
2024/01/09 05:10:44;;;;;;;10.13;3.40;;;;;;;;;;4904786;29;20188;-54
2024/01/09 05:13:10;;;;;;;11.00;3.80;;;;;;;;;;4912867;29;20815;-53
2024/01/09 05:15:36;;;;;;;15.50;4.73;;;;;;;;;;4911952;29;20991;-53
2024/01/09 05:18:03;;;;;;;11.63;3.80;;;;;;;;;;4912674;29;20456;-54
2024/01/09 05:20:29;;;;;;;14.03;4.10;;;;;;;;;;4912628;29;20188;-54
2024/01/09 05:22:58;;;;;;;11.37;4.23;;;;;;;;;;4916016;29;20790;-51
2024/01/09 05:25:24;;;;;;;9.93;3.47;;;;;;;;;;4907221;29;20476;-54
2024/01/09 05:27:50;;;;;;;11.70;3.50;;;;;;;;;;4897248;29;20538;-54
2024/01/09 05:30:16;;;;;;;10.13;3.93;;;;;;;;;;4897339;29;20195;-56
2024/01/09 05:32:42;;;;;;;9.93;4.20;;;;;;;;;;4896941;29;20244;-52
2024/01/09 05:35:08;;;;;;;12.90;4.97;;;;;;;;;;4910009;29;20475;-53
2024/01/09 05:37:34;;;;;;;14.63;5.90;;;;;;;;;;4907836;29;20416;-51
2024/01/09 05:40:00;;;;;;;13.60;6.03;;;;;;;;;;4916025;29;20731;-54
2024/01/09 05:42:26;;;;;;;13.27;4.87;;;;;;;;;;4900385;29;20452;-55
2024/01/09 05:44:52;;;;;;;18.07;7.47;;;;;;;;;;4907523;29;20566;-55
2024/01/09 05:47:18;;;;;;;14.70;5.43;;;;;;;;;;4915600;29;20204;-52
2024/01/09 05:49:44;;;;;;;18.33;7.10;;;;;;;;;;4899998;29;20445;-51
2024/01/09 05:52:10;;;;;;;16.13;5.77;;;;;;;;;;4909700;29;20510;-52
2024/01/09 05:54:36;;;;;;;14.30;6.83;;;;;;;;;;4903823;29;20228;-56
2024/01/09 05:57:02;;;;;;;18.40;6.90;;;;;;;;;;4901671;29;20699;-54
2024/01/09 05:59:28;;;;;;;14.97;6.93;;;;;;;;;;4907820;29;20198;-53
2024/01/09 06:01:54;;;;;;;10.43;4.07;;;;;;;;;;4908128;29;20424;-55
2024/01/09 06:04:20;;;;;;;10.43;3.83;;;;;;;;;;4907698;29;20201;-55
2024/01/09 06:06:46;;;;;;;8.80;3.50;;;;;;;;;;4896237;29;20708;-51
2024/01/09 06:09:12;;;;;;;9.17;4.57;;;;;;;;;;4904722;29;20189;-54
2024/01/09 06:11:38;;;;;;;15.47;7.03;;;;;;;;;;4906338;29;20220;-56
2024/01/09 06:14:04;;;;;;;10.87;5.80;;;;;;;;;;4910183;29;20515;-54
2024/01/09 06:16:30;;;;;;;14.83;6.47;;;;;;;;;;4904386;29;20467;-55
2024/01/09 06:18:57;;;;;;;12.50;5.73;;;;;;;;;;4911019;29;20992;-55
2024/01/09 06:21:23;;;;;;;11.73;5.37;;;;;;;;;;4912228;29;20228;-54
2024/01/09 06:23:49;;;;;;;14.00;5.33;;;;;;;;;;4907273;29;20529;-52
2024/01/09 06:26:15;;;;;;;11.27;4.30;;;;;;;;;;4900024;29;20468;-54
2024/01/09 06:28:42;;;;;;;10.37;4.13;;;;;;;;;;4911652;29;20743;-53
2024/01/09 06:31:08;;;;;;;8.93;3.50;;;;;;;;;;4898101;29;20224;-55
2024/01/09 06:33:34;;;;;;;7.27;3.37;;;;;;;;;;4912159;29;20447;-51
2024/01/09 06:36:00;;;;;;;11.23;3.10;;;;;;;;;;4906309;29;20879;-51
2024/01/09 06:38:27;;;;;;;9.80;2.87;;;;;;;;;;4914810;29;20695;-53
2024/01/09 06:40:52;;;;;;;9.87;3.03;;;;;;;;;;4911125;29;20417;-54
2024/01/09 06:43:18;;;;;;;7.13;3.20;;;;;;;;;;4902980;29;20430;-51
2024/01/09 06:45:44;;;;;;;8.93;3.17;;;;;;;;;;4906225;29;20216;-54
2024/01/09 06:48:10;;;;;;;7.87;2.97;;;;;;;;;;4900597;29;20785;-52
2024/01/09 06:50:36;;;;;;;7.67;2.87;;;;;;;;;;4905035;29;20439;-54
2024/01/09 06:53:02;;;;;;;10.93;3.27;;;;;;;;;;4914521;29;20279;-52
2024/01/09 06:55:28;;;;;;;10.57;4.23;;;;;;;;;;4913627;29;20219;-52
2024/01/09 06:57:55;;;;;;;9.47;3.43;;;;;;;;;;4910553;29;20513;-54
2024/01/09 07:00:21;;;;;;;10.87;3.50;;;;;;;;;;4903314;29;20431;-53
2024/01/09 07:02:47;;;;;;;13.10;3.80;;;;;;;;;;4910778;29;20442;-51
2024/01/09 07:05:13;;;;;;;11.63;3.50;;;;;;;;;;4908875;29;20994;-51
2024/01/09 07:07:40;;;;;;;11.57;3.60;;;;;;;;;;4904699;29;20480;-53
2024/01/09 07:10:06;;;;;;;15.90;5.23;;;;;;;;;;4906456;29;20443;-52
2024/01/09 07:12:32;;;;;;;8.13;3.30;;;;;;;;;;4913902;29;20521;-56
2024/01/09 07:14:58;;;;;;;8.70;3.20;;;;;;;;;;4905791;29;20878;-54
2024/01/09 07:17:24;;;;;;;9.07;2.60;;;;;;;;;;4906065;29;20665;-52
2024/01/09 07:19:50;;;;;;;7.93;3.40;;;;;;;;;;4895296;29;20508;-52
2024/01/09 07:22:16;;;;;;;9.00;3.50;;;;;;;;;;4902077;29;20834;-52
2024/01/09 07:24:42;;;;;;;11.10;3.70;;;;;;;;;;4913434;29;20192;-54
2024/01/09 07:27:08;;;;;;;8.10;3.57;;;;;;;;;;4900418;29;20216;-54
2024/01/09 07:29:34;;;;;;;9.27;2.97;;;;;;;;;;4904869;29;20275;-52
2024/01/09 07:32:00;;;;;;;9.50;3.60;;;;;;;;;;4904599;29;20188;-53
2024/01/09 07:34:26;;;;;;;8.10;3.27;;;;;;;;;;4902596;29;20480;-56
2024/01/09 07:36:52;;;;;;;6.87;2.70;;;;;;;;;;4897467;29;20199;-53
2024/01/09 07:39:18;;;;;;;9.23;3.07;;;;;;;;;;4898117;29;20236;-53
2024/01/09 07:41:44;;;;;;;10.33;3.33;;;;;;;;;;4904257;29;20188;-54
2024/01/09 07:44:10;;;;;;;9.97;3.20;;;;;;;;;;4912597;29;20211;-53
2024/01/09 07:46:36;;;;;;;8.77;3.33;;;;;;;;;;4904358;29;20216;-54
2024/01/09 07:49:02;;;;;;;11.40;3.33;;;;;;;;;;4905388;29;20434;-54
2024/01/09 07:51:28;;;;;;;9.00;4.27;;;;;;;;;;4905124;29;20949;-55
2024/01/09 07:53:54;;;;;;;10.73;3.70;;;;;;;;;;4901543;29;20464;-54
2024/01/09 07:56:22;;;;;;;9.50;3.00;;;;;;;;;;4893300;29;20436;-57
2024/01/09 07:58:48;;;;;;;16.40;4.97;;;;;;;;;;4897587;29;20440;-53
2024/01/09 08:01:14;;;;;;;9.50;3.20;;;;;;;;;;4898708;29;20453;-55
2024/01/09 08:03:40;;;;;;;5.57;2.63;;;;;;;;;;4901847;29;20844;-56
2024/01/09 08:06:13;;;;;;;10.60;3.87;;;;;;;;;;4901165;29;20456;-53
2024/01/09 08:08:39;;;;;;;10.37;3.77;;;;;;;;;;4909355;29;20416;-55
2024/01/09 08:11:05;;;;;;;11.63;3.73;;;;;;;;;;4901713;29;20423;-53
2024/01/09 08:13:31;;;;;;;9.70;4.00;;;;;;;;;;4894450;29;20421;-57
2024/01/09 08:15:58;;;;;;;10.17;3.80;;;;;;;;;;4911905;29;20444;-55
2024/01/09 08:18:24;;;;;;;9.03;3.00;;;;;;;;;;4912841;29;20436;-54
2024/01/09 08:20:50;;;;;;;9.30;3.30;;;;;;;;;;4901902;29;20432;-56
2024/01/09 08:23:16;;;;;;;9.50;3.33;;;;;;;;;;4902126;29;20925;-55
2024/01/09 08:25:42;;;;;;;6.67;2.80;;;;;;;;;;4893147;29;20216;-56
2024/01/09 08:28:09;;;;;;;9.80;3.20;;;;;;;;;;4907198;29;20905;-58
2024/01/09 08:30:35;;;;;;;7.50;2.70;;;;;;;;;;4896956;29;20487;-52
2024/01/09 08:33:01;;;;;;;7.53;2.43;;;;;;;;;;4905057;29;20424;-54
2024/01/09 08:35:27;;;;;;;10.23;3.17;;;;;;;;;;4911527;29;20222;-53
2024/01/09 08:37:53;;;;;;;7.60;2.77;;;;;;;;;;4901655;29;20188;-55
2024/01/09 08:40:19;;;;;;;6.70;2.90;;;;;;;;;;4893724;29;20707;-55
2024/01/09 08:42:45;;;;;;;12.03;3.30;;;;;;;;;;4901489;29;20320;-53
2024/01/09 08:45:11;;;;;;;11.57;3.63;;;;;;;;;;4906915;29;20316;-56
2024/01/09 08:47:37;;;;;;;9.40;3.37;;;;;;;;;;4903230;29;20267;-51
2024/01/09 08:50:04;;;;;;;11.60;4.00;;;;;;;;;;4893879;29;20489;-54
2024/01/09 08:52:31;;;;;;;18.43;4.30;;;;;;;;;;4901234;29;20919;-52
2024/01/09 08:54:57;;;;;;;9.43;3.67;;;;;;;;;;4904681;29;20467;-53
2024/01/09 08:57:22;;;;;;;11.50;3.47;;;;;;;;;;4916015;29;20428;-53
2024/01/09 08:59:49;;;;;;;9.40;3.60;;;;;;;;;;4916072;29;20765;-55
2024/01/09 09:02:15;;;;;;;5.90;3.13;;;;;;;;;;4909591;29;20854;-53
2024/01/09 09:04:41;;;;;;;11.20;3.77;;;;;;;;;;4906249;29;20991;-52
2024/01/09 09:07:07;;;;;;;8.80;3.23;;;;;;;;;;4915829;29;20474;-52
2024/01/09 09:09:35;;;;;;;11.17;2.90;;;;;;;;;;4909316;29;20450;-50
2024/01/09 09:12:01;;;;;;;5.83;2.63;;;;;;;;;;4911285;29;20757;-54
2024/01/09 09:14:27;;;;;;;8.13;3.27;;;;;;;;;;4911959;29;20507;-51
2024/01/09 09:16:53;;;;;;;9.23;3.43;;;;;;;;;;4915682;29;20435;-54
2024/01/09 09:19:22;;;;;;;16.03;4.03;;;;;;;;;;4907914;29;20420;-52
2024/01/09 09:21:48;;;;;;;9.10;3.73;;;;;;;;;;4904987;29;20223;-56
2024/01/09 09:24:14;;;;;;;9.90;3.50;;;;;;;;;;4896673;29;20452;-52
2024/01/09 09:26:40;;;;;;;21.30;5.83;;;;;;;;;;4911501;29;20224;-55
2024/01/09 09:29:09;;;;;;;19.47;5.70;;;;;;;;;;4904524;29;20203;-54
2024/01/09 09:31:35;;;;;;;15.83;5.60;;;;;;;;;;4897674;29;20211;-56
2024/01/09 09:34:01;;;;;;;11.33;4.77;;;;;;;;;;4907507;29;20479;-54
2024/01/09 09:36:27;;;;;;;8.87;3.77;;;;;;;;;;4898969;29;20221;-52
2024/01/09 09:38:53;;;;;;;9.10;3.87;;;;;;;;;;4904386;29;20189;-53
2024/01/09 09:41:20;;;;;;;10.37;4.20;;;;;;;;;;4911017;29;20235;-54
2024/01/09 09:43:50;;;;;;;9.17;4.00;;;;;;;;;;4915222;29;20925;-54
2024/01/09 09:46:20;;;;;;;9.37;3.60;;;;;;;;;;4900578;29;20413;-54
2024/01/09 09:48:47;;;;;;;14.00;4.47;;;;;;;;;;4906539;29;20200;-57
2024/01/09 09:51:13;;;;;;;11.83;4.37;;;;;;;;;;4915272;29;20585;-55
2024/01/09 09:53:38;;;;;;;9.50;4.20;;;1.30;99.90;;;;;;4914882;29;20192;-52
2024/01/09 09:56:04;;;;;;;11.30;4.80;;;9.40;99.90;;;;;;4906814;29;20215;-55
2024/01/09 09:58:31;;;;;;;11.20;4.07;;;9.50;99.90;;;;;;4906601;29;20672;-56
2024/01/09 10:00:58;;;;;;;10.23;4.20;;;8.80;97.30;;;;;;4903930;29;20572;-57
2024/01/09 10:03:30;;;;;;;11.13;4.13;;;7.60;99.90;;;;;;4903557;29;20597;-53
2024/01/09 10:05:56;;;;;;;8.73;4.00;;;;;;;;;;4895202;29;20668;-51
2024/01/09 10:08:23;;;;;;;9.23;4.60;;;;;;;;;;4895107;29;20189;-56
2024/01/09 10:10:49;;;;;;;8.90;4.23;;;;;;;;;;4906551;29;20192;-51
2024/01/09 10:13:15;;;;;;;8.53;4.43;;;;;;;;;;4913734;29;20180;-54
2024/01/09 10:16:16;;;;;;;8.80;4.13;;;;;;;;;;4909481;29;20701;-56
2024/01/09 10:18:42;;;;;;;10.77;4.60;;;7.00;99.40;;;;;;4871996;29;20722;-51
2024/01/09 10:21:08;;;;;;;10.73;4.57;;;3.60;99.90;;;;;;4893199;29;20196;-52
2024/01/09 10:23:36;;;;;;;7.43;3.70;;;3.30;99.90;;;;;;4913104;29;20208;-52
2024/01/09 10:26:04;;;;;;;7.63;3.80;;;3.30;99.90;;;;;;4893464;29;20590;-54
2024/01/09 10:28:29;;;;;;;7.37;3.60;;;3.10;99.90;;;;;;4909883;29;20445;-52
2024/01/09 10:30:55;;;;;;;7.57;3.80;;;2.70;99.90;;;;;;4901000;29;20641;-53
2024/01/09 10:33:21;;;;;;;10.00;4.73;;;2.40;99.90;;;;;;4901336;29;20254;-56
2024/01/09 10:35:46;;;;;;;8.93;4.03;;;2.00;99.90;;;;;;4900772;29;20245;-54
2024/01/09 10:38:12;;;;;;;8.33;3.80;;;1.80;99.90;;;;;;4901892;29;20550;-54
2024/01/09 10:40:38;;;;;;;9.17;4.20;;;1.70;99.90;;;;;;4893934;29;20207;-53
2024/01/09 10:43:04;;;;;;;12.30;3.70;;;1.80;99.90;;;;;;4895579;29;20243;-55
2024/01/09 10:45:30;;;;;;;10.40;4.00;;;1.50;99.90;;;;;;4902406;29;20251;-55
2024/01/09 10:48:00;;;;;;;7.13;3.50;;;1.30;99.90;;;;;;4895292;29;20231;-50
2024/01/09 10:50:26;;;;;;;8.00;4.23;;;1.30;99.90;;;;;;4911260;29;20199;-52
2024/01/09 10:52:55;;;;;;;7.53;4.00;;;1.30;99.90;;;;;;4898588;29;20198;-54
2024/01/09 10:55:23;;;;;;;10.03;4.07;;;1.30;99.90;;;;;;4905492;29;20234;-54
2024/01/09 10:57:49;;;;;;;8.77;4.07;;;1.30;99.90;;;;;;4911131;29;20547;-56
2024/01/09 11:00:16;;;;;;;10.53;4.13;;;1.30;99.90;;;;;;4895048;29;20653;-56
2024/01/09 11:02:42;;;;;;;10.33;3.70;;;1.30;99.90;;;;;;4896461;29;20727;-55
2024/01/09 11:05:10;;;;;;;10.70;4.03;;;1.40;99.90;;;;;;4913470;29;20188;-52
2024/01/09 11:07:37;;;;;;;9.50;3.93;;;1.20;99.90;;;;;;4905917;29;20235;-55
2024/01/09 11:10:06;;;;;;;9.47;4.10;;;1.20;99.90;;;;;;4906136;29;20572;-52
2024/01/09 11:12:42;;;;;;;10.17;4.20;;;1.40;99.90;;;;;;4905703;29;20251;-56
2024/01/09 11:15:18;;;;;;;9.17;3.93;;;1.40;99.90;;;;;;4903825;29;20702;-56
2024/01/09 11:17:49;;;;;;;8.90;3.17;;;1.50;99.90;;;;;;4901493;29;20179;-53
2024/01/09 11:20:16;;;;;;;10.40;3.53;;;1.60;99.90;;;;;;4900744;29;20597;-51
2024/01/09 11:22:42;;;;;;;15.13;4.87;;;1.60;99.90;;;;;;4895967;29;20197;-50
2024/01/09 11:25:33;;;;;;;8.10;3.80;;;1.60;99.90;;;;;;4899297;29;20203;-53
2024/01/09 11:28:07;;;;;;;6.50;3.10;;;1.60;99.90;;;;;;4906363;29;20196;-52
2024/01/09 11:30:33;;;;;;;9.47;2.93;;;1.60;99.90;;;;;;4913055;29;20617;-52
2024/01/09 11:33:18;;;;;;;9.20;3.40;;;1.40;99.90;;;;;;4908458;29;20195;-53
2024/01/09 11:35:44;;;;;;;7.37;3.30;;;1.50;99.90;;;;;;4903159;29;20228;-51
2024/01/09 11:38:10;;;;;;;8.53;3.80;;;1.60;99.90;;;;;;4900057;29;20192;-61
2024/01/09 11:40:35;;;;;;;8.80;3.77;;;1.80;99.90;;;;;;4897092;29;20192;-51
2024/01/09 11:43:02;;;;;;;7.37;3.40;;;1.80;99.90;;;;;;4906559;29;20390;-54
2024/01/09 11:45:27;;;;;;;8.20;3.40;;;1.90;99.90;;;;;;4904506;29;20227;-52
2024/01/09 11:47:53;;;;;;;8.40;3.30;;;2.20;99.90;;;;;;4897622;29;20192;-53
2024/01/09 11:50:20;;;;;;;8.47;3.70;;;2.40;99.90;;;;;;4904600;29;20591;-53
2024/01/09 11:52:48;;;;;;;11.50;3.70;;;2.70;99.90;;;;;;4902836;29;20215;-52
2024/01/09 11:55:14;;;;;;;8.73;3.87;;;3.20;99.90;;;;;;4893608;29;20363;-50
2024/01/09 11:57:41;;;;;;;8.67;3.77;;;3.70;99.90;;;;;;4901883;29;20195;-52
2024/01/09 12:00:09;;;;;;;6.30;3.33;;;4.40;99.90;;;;;;4899287;29;20727;-53
2024/01/09 12:02:38;;;;;;;6.93;3.47;;;5.00;99.90;;;;;;4904037;29;20211;-50
2024/01/09 12:05:05;;;;;;;11.90;4.00;;;5.50;99.90;;;;;;4893382;29;20220;-50
2024/01/09 12:07:39;;;;;;;10.67;3.93;;;6.00;99.90;;;;;;4909748;29;20631;-52
2024/01/09 12:10:10;;;;;;;11.57;4.20;;;6.20;99.90;;;;;;4908230;29;20199;-52
2024/01/09 12:12:36;;;;;;;9.60;4.30;;;6.30;99.90;;;;;;4902857;29;20275;-52
2024/01/09 12:15:01;;;;;;;7.60;3.30;;;6.70;99.90;;;;;;4899663;29;20295;-52
2024/01/09 12:17:33;;;;;;;13.60;5.53;;;6.60;97.20;;;;;;4900730;29;20199;-60
2024/01/09 12:20:00;;;;;;;19.27;7.73;;;6.60;99.00;;;;;;4894080;29;20211;-51
2024/01/09 12:22:26;;;;;;;16.50;6.67;;;6.70;99.90;;;;;;4901389;29;20199;-48
2024/01/09 12:24:53;;;;;;;9.53;3.80;;;6.50;98.20;;;;;;4901069;29;20251;-48
2024/01/09 12:27:20;;;;;;;7.23;3.43;;;6.10;99.90;;;;;;4914974;29;20195;-52
2024/01/09 12:29:46;;;;;;;7.23;3.40;;;5.50;99.00;;;;;;4913458;29;20219;-47
2024/01/09 12:32:13;;;;;;;10.80;3.83;;;4.90;99.60;;;;;;4916028;29;20279;-48
2024/01/09 12:34:39;;;;;;;7.13;3.13;;;4.40;97.90;;;;;;4906460;29;20216;-48
2024/01/09 12:37:07;;;;;;;10.93;4.33;;;4.20;99.90;;;;;;4908717;29;20203;-50
2024/01/09 12:39:35;;;;;;;10.90;4.57;;;4.00;98.60;;;;;;4908154;29;20195;-48
2024/01/09 12:42:12;;;;;;;7.87;3.97;;;3.50;99.90;;;;;;4907578;29;20558;-47
2024/01/09 12:44:41;;;;;;;9.10;2.90;;;3.60;99.90;;;;;;4914780;29;20286;-50
2024/01/09 12:47:08;;;;;;;7.00;3.17;;;3.60;98.60;;;;;;4911003;29;20216;-48
2024/01/09 12:49:46;;;;;;;7.87;3.07;;;3.60;99.90;;;;;;4913664;29;20195;-47
2024/01/09 12:52:12;;;;;;;7.37;3.73;;;3.60;99.90;;;;;;4910454;29;20196;-47
2024/01/09 12:54:41;;;;;;;9.80;4.27;;;3.80;99.40;;;;;;4904414;29;20591;-50
2024/01/09 12:57:06;;;;;;;8.80;3.90;;;4.00;99.90;;;;;;4902314;29;20423;-49
2024/01/09 12:59:32;;;;;;;7.03;3.33;;;4.00;99.90;;;;;;4908269;29;20287;-49
2024/01/09 13:01:58;;;;;;;6.93;3.37;;;4.00;99.90;;;;;;4908323;29;20547;-51
2024/01/09 13:04:24;;;;;;;11.67;4.63;;;4.10;99.90;;;;;;4923603;29;20221;-48
2024/01/09 13:06:50;;;;;;;9.70;4.00;;;4.30;99.90;;;;;;4907839;29;20219;-49
2024/01/09 13:09:16;;;;;;;11.27;4.40;;;4.30;99.90;;;;;;4915748;29;20251;-49
2024/01/09 13:11:44;;;;;;;8.93;4.57;;;4.40;99.90;;;;;;4900238;29;20189;-49
2024/01/09 13:14:13;;;;;;;9.57;3.83;;;4.30;99.90;;;;;;4901889;29;20204;-50
2024/01/09 13:16:39;;;;;;;8.63;3.90;;;4.40;99.90;;;;;;4902873;29;20317;-48
2024/01/09 13:19:05;;;;;;;8.77;3.67;;;4.40;99.90;;;;;;4909433;29;20263;-49
2024/01/09 13:21:31;;;;;;;10.50;4.87;;;4.20;99.90;;;;;;4908109;29;20192;-51
2024/01/09 13:23:57;;;;;;;8.70;3.70;;;4.30;99.00;;;;;;4903971;29;20192;-51
2024/01/09 13:26:23;;;;;;;12.17;3.30;;;4.20;98.80;;;;;;4903490;29;20207;-50
2024/01/09 13:28:49;;;;;;;14.57;6.07;;;4.30;99.90;;;;;;4912962;29;20196;-50
2024/01/09 13:31:15;;;;;;;8.17;4.47;;;4.40;99.90;;;;;;4910410;29;20191;-49
2024/01/09 13:33:40;;;;;;;13.37;5.67;;;4.50;99.90;;;;;;4898364;29;20275;-49
2024/01/09 13:36:06;;;;;;;10.73;4.90;;;4.60;99.90;;;;;;4904179;29;20252;-50
2024/01/09 13:38:33;;;;;;;8.67;3.47;;;4.60;98.10;;;;;;4904584;29;20202;-50
2024/01/09 13:40:59;;;;;;;10.93;5.20;;;4.60;98.90;;;;;;4915172;29;20711;-47
2024/01/09 13:43:25;;;;;;;16.13;7.30;;;4.60;99.30;;;;;;4914400;29;20184;-50
2024/01/09 13:45:50;;;;;;;13.87;4.70;;;4.80;99.90;;;;;;4896528;29;20589;-51
2024/01/09 13:48:20;;;;;;;13.87;5.50;;;4.90;98.90;;;;;;4904254;29;20283;-49
2024/01/09 13:50:47;;;;;;;17.63;6.37;;;5.00;99.40;;;;;;4896644;29;20208;-52
2024/01/09 13:53:15;;;;;;;13.20;4.63;;;5.10;99.50;;;;;;4910531;29;20187;-53
2024/01/09 13:55:41;;;;;;;13.27;4.80;;;5.00;98.60;;;;;;4897719;29;20687;-48
2024/01/09 13:58:06;;;;;;;10.60;4.87;;;5.00;98.50;;;;;;4896530;29;20189;-49
2024/01/09 14:00:32;;;;;;;14.90;5.30;;;5.10;99.10;;;;;;4900767;29;20196;-52